createdAt,value
2019-01-10T00:04:04.634Z,7.43
2019-01-10T00:07:12.967Z,5.87
2019-01-10T00:10:21.327Z,9.70
2019-01-10T00:13:10.154Z,8.63
2019-01-10T00:15:59.268Z,9.73
2019-01-10T00:18:48.179Z,6.70
2019-01-10T00:21:37.024Z,9.97
2019-01-10T00:24:25.875Z,6.87
2019-01-10T00:27:14.862Z,10.00
2019-01-10T00:30:23.204Z,8.33
2019-01-10T00:33:05.894Z,12.67
2019-01-10T00:35:54.753Z,12.23
2019-01-10T00:38:43.582Z,6.80
2019-01-10T00:41:32.462Z,7.40
2019-01-10T00:44:21.422Z,16.57
2019-01-10T00:47:10.258Z,10.37
2019-01-10T00:50:39.273Z,11.77
2019-01-10T00:53:47.555Z,7.53
2019-01-10T00:56:36.486Z,5.77
2019-01-10T00:59:25.447Z,7.77
2019-01-10T01:02:14.366Z,5.57
2019-01-10T01:05:22.992Z,7.57
2019-01-10T01:08:11.896Z,6.93
2019-01-10T01:11:00.899Z,12.67
2019-01-10T01:13:49.874Z,7.97
2019-01-10T01:16:38.871Z,5.40
2019-01-10T01:19:47.214Z,5.47
2019-01-10T01:22:36.215Z,16.47
2019-01-10T01:25:44.555Z,10.30
2019-01-10T01:28:52.947Z,7.67
2019-01-10T01:31:55.115Z,8.60
2019-01-10T01:34:44.081Z,5.80
2019-01-10T01:37:33.046Z,5.40
2019-01-10T01:40:21.945Z,6.37
2019-01-10T01:43:30.274Z,7.10
2019-01-10T01:46:19.188Z,7.93
2019-01-10T01:49:08.098Z,6.77
2019-01-10T01:51:56.954Z,7.80
2019-01-10T01:54:45.785Z,5.20
2019-01-10T01:57:34.775Z,9.43
2019-01-10T02:00:43.127Z,5.90
2019-01-10T02:03:32.174Z,6.30
2019-01-10T02:06:21.075Z,8.63
2019-01-10T02:12:10.396Z,4.93
2019-01-10T02:14:59.258Z,6.10
2019-01-10T02:17:49.142Z,22.63
2019-01-10T02:20:58.135Z,5.43
2019-01-10T02:24:06.498Z,5.07
2019-01-10T02:30:04.182Z,4.30
2019-01-10T02:33:04.167Z,4.10
2019-01-10T02:35:53.016Z,5.87
2019-01-10T02:38:41.887Z,6.50
2019-01-10T02:41:30.715Z,5.70
2019-01-10T02:44:19.683Z,4.20
2019-01-10T02:47:08.522Z,3.67
2019-01-10T02:49:57.513Z,4.90
2019-01-10T02:52:46.580Z,4.40
2019-01-10T02:55:35.469Z,5.20
2019-01-10T02:58:17.638Z,8.10
2019-01-10T03:01:06.744Z,11.10
2019-01-10T03:07:03.749Z,7.00
2019-01-10T03:09:52.578Z,4.80
2019-01-10T03:12:41.503Z,9.70
2019-01-10T03:15:49.785Z,4.77
2019-01-10T03:18:38.616Z,3.10
2019-01-10T03:21:27.478Z,7.70
2019-01-10T03:24:16.314Z,5.67
2019-01-10T03:27:24.600Z,6.03
2019-01-10T03:30:34.228Z,5.00
2019-01-10T03:33:36.153Z,3.67
2019-01-10T03:36:24.999Z,7.70
2019-01-10T03:39:33.279Z,5.83
2019-01-10T03:42:41.641Z,6.33
2019-01-10T03:45:30.526Z,5.27
2019-01-10T03:48:19.447Z,5.93
2019-01-10T03:51:08.342Z,4.07
2019-01-10T03:53:57.269Z,7.77
2019-01-10T03:56:46.242Z,4.87
2019-01-10T03:59:54.514Z,11.90
2019-01-10T04:03:02.933Z,5.10
2019-01-10T04:05:52.204Z,7.67
2019-01-10T04:08:41.061Z,4.30
2019-01-10T04:11:30.119Z,7.10
2019-01-10T04:14:18.991Z,7.07
2019-01-10T04:17:07.975Z,4.33
2019-01-10T04:19:56.891Z,4.50
2019-01-10T04:22:45.917Z,4.80
2019-01-10T04:25:34.845Z,5.27
2019-01-10T04:28:23.867Z,4.00
2019-01-10T04:31:32.176Z,8.60
2019-01-10T04:34:14.429Z,5.50
2019-01-10T04:37:03.383Z,7.30
2019-01-10T04:40:32.415Z,5.20
2019-01-10T04:43:21.248Z,6.63
2019-01-10T04:46:29.610Z,7.70
2019-01-10T04:49:18.469Z,6.87
2019-01-10T04:55:34.694Z,4.77
2019-01-10T04:58:23.524Z,5.80
2019-01-10T05:01:12.507Z,10.30
2019-01-10T05:04:01.441Z,6.43
2019-01-10T05:06:50.422Z,5.17
2019-01-10T05:09:19.989Z,8.17
2019-01-10T05:12:08.925Z,7.57
2019-01-10T05:14:57.820Z,5.03
2019-01-10T05:17:46.754Z,20.67
2019-01-10T05:20:35.587Z,10.13
2019-01-10T05:23:24.528Z,11.43
2019-01-10T05:26:32.829Z,31.53
2019-01-10T05:29:21.648Z,5.10
2019-01-10T05:32:29.932Z,9.53
2019-01-10T05:38:26.766Z,6.00
2019-01-10T05:41:15.744Z,5.90
2019-01-10T05:44:04.724Z,6.33
2019-01-10T05:46:53.767Z,6.93
2019-01-10T05:49:42.594Z,7.17
2019-01-10T05:52:50.936Z,7.73
2019-01-10T05:55:39.843Z,3.67
2019-01-10T05:58:42.046Z,9.87
2019-01-10T06:01:30.957Z,6.20
2019-01-10T06:04:39.299Z,4.43
2019-01-10T06:07:47.588Z,6.80
2019-01-10T06:10:36.418Z,9.10
2019-01-10T06:13:44.714Z,6.53
2019-01-10T06:16:52.984Z,11.03
2019-01-10T06:19:41.908Z,7.50
2019-01-10T06:22:30.734Z,6.80
2019-01-10T06:25:19.681Z,11.73
2019-01-10T06:28:08.621Z,5.00
2019-01-10T06:30:57.435Z,10.03
2019-01-10T06:33:39.784Z,5.10
2019-01-10T06:36:28.614Z,4.60
2019-01-10T06:39:19.667Z,7.83
2019-01-10T06:42:27.589Z,3.60
2019-01-10T06:45:11.225Z,7.70
2019-01-10T06:48:00.062Z,7.50
2019-01-10T06:50:48.912Z,8.63
2019-01-10T06:53:37.809Z,4.77
2019-01-10T06:56:26.731Z,9.30
2019-01-10T06:59:09.067Z,7.40
2019-01-10T07:01:58.027Z,7.97
2019-01-10T07:04:46.945Z,6.27
2019-01-10T07:07:56.671Z,5.83
2019-01-10T07:11:05.347Z,8.63
2019-01-10T07:13:54.189Z,6.60
2019-01-10T07:16:43.022Z,5.70
2019-01-10T07:19:51.059Z,8.97
2019-01-10T07:22:59.310Z,9.10
2019-01-10T07:26:08.888Z,9.27
2019-01-10T07:28:57.840Z,23.17
2019-01-10T07:31:46.844Z,8.27
2019-01-10T07:34:29.363Z,10.40
2019-01-10T07:37:18.251Z,7.10
2019-01-10T07:40:28.057Z,15.23
2019-01-10T07:43:37.726Z,8.03
2019-01-10T07:46:26.727Z,10.57
2019-01-10T07:49:15.618Z,6.97
2019-01-10T07:52:16.461Z,12.90
2019-01-10T07:55:14.704Z,11.30
2019-01-10T07:57:57.062Z,5.90
2019-01-10T08:00:46.063Z,5.33
2019-01-10T08:03:36.554Z,5.00
2019-01-10T08:09:52.897Z,8.27
2019-01-10T08:13:01.298Z,6.17
2019-01-10T08:16:09.697Z,9.40
2019-01-10T08:18:58.842Z,8.77
2019-01-10T08:22:07.095Z,5.30
2019-01-10T08:24:56.036Z,6.97
2019-01-10T08:27:44.956Z,8.77
2019-01-10T08:30:35.494Z,7.83
2019-01-10T08:33:37.423Z,9.43
2019-01-10T08:36:32.346Z,7.80
2019-01-10T08:39:36.299Z,11.00
2019-01-10T08:42:44.558Z,6.00
2019-01-10T08:45:33.570Z,5.27
2019-01-10T08:48:22.538Z,11.23
2019-01-10T08:51:11.483Z,8.80
2019-01-10T08:54:19.780Z,10.40
2019-01-10T08:57:08.750Z,7.00
2019-01-10T08:59:57.652Z,8.30
2019-01-10T09:02:46.716Z,9.00
2019-01-10T09:05:35.398Z,4.70
2019-01-10T09:08:43.640Z,15.00
2019-01-10T09:11:32.707Z,10.40
2019-01-10T09:14:21.790Z,9.00
2019-01-10T09:17:30.066Z,9.73
2019-01-10T09:20:19.019Z,15.60
2019-01-10T09:23:07.928Z,7.10
2019-01-10T09:29:16.695Z,12.93
2019-01-10T09:34:59.166Z,35.97
2019-01-10T09:37:48.015Z,8.40
2019-01-10T09:40:37.118Z,9.00
2019-01-10T09:43:26.105Z,10.00
2019-01-10T09:46:14.952Z,9.43
2019-01-10T09:49:23.293Z,8.87
2019-01-10T09:52:12.312Z,9.33
2019-01-10T09:55:20.713Z,12.37
2019-01-10T09:58:09.772Z,12.63
2019-01-10T10:04:06.907Z,7.80
2019-01-10T10:06:55.775Z,8.93
2019-01-10T10:10:24.763Z,6.70
2019-01-10T10:13:13.670Z,8.83
2019-01-10T10:16:02.583Z,14.07
2019-01-10T10:18:51.483Z,13.03
2019-01-10T10:21:59.731Z,7.40
2019-01-10T10:25:08.083Z,8.00
2019-01-10T10:27:56.951Z,10.82
2019-01-10T10:30:45.856Z,21.70
2019-01-10T10:33:28.593Z,13.40
2019-01-10T10:36:17.495Z,11.93
2019-01-10T10:39:25.781Z,12.70
2019-01-10T10:45:43.781Z,11.33
2019-01-10T10:48:32.734Z,7.17
2019-01-10T10:51:21.710Z,8.43
2019-01-10T10:54:30.035Z,11.83
2019-01-10T10:57:38.414Z,18.33
2019-01-10T11:00:46.719Z,7.60
2019-01-10T11:03:55.084Z,15.50
2019-01-10T11:07:03.418Z,8.23
2019-01-10T11:12:54.897Z,14.33
2019-01-10T11:15:43.842Z,10.20
2019-01-10T11:18:32.863Z,13.73
2019-01-10T11:21:21.862Z,12.13
2019-01-10T11:27:18.886Z,13.40
2019-01-10T11:30:27.255Z,11.83
2019-01-10T11:33:16.167Z,9.90
2019-01-10T11:36:05.118Z,7.03
2019-01-10T11:39:13.451Z,11.60
2019-01-10T11:41:43.007Z,8.50
2019-01-10T11:44:31.999Z,5.83
2019-01-10T11:47:40.277Z,8.67
2019-01-10T11:50:29.354Z,6.10
2019-01-10T11:56:26.251Z,7.50
2019-01-10T11:59:14.778Z,10.23
2019-01-10T12:02:03.620Z,5.37
2019-01-10T12:05:12.186Z,17.23
2019-01-10T12:08:01.204Z,10.83
2019-01-10T12:13:50.639Z,7.60
2019-01-10T12:16:39.748Z,7.60
2019-01-10T12:19:28.813Z,11.63
2019-01-10T12:22:17.821Z,9.47
2019-01-10T12:24:47.502Z,6.63
2019-01-10T12:27:56.040Z,9.20
2019-01-10T12:30:44.999Z,9.60
2019-01-10T12:33:34.029Z,7.97
2019-01-10T12:36:23.099Z,12.10
2019-01-10T12:39:12.186Z,11.97
2019-01-10T12:42:01.138Z,18.37
2019-01-10T12:44:50.083Z,18.07
2019-01-10T12:47:39.253Z,10.00
2019-01-10T12:50:29.042Z,11.67
2019-01-10T12:53:17.986Z,14.17
2019-01-10T12:59:34.267Z,10.97
2019-01-10T13:02:23.267Z,11.30
2019-01-10T13:05:12.291Z,17.57
2019-01-10T13:08:20.632Z,15.53
2019-01-10T13:11:09.626Z,12.37
2019-01-10T13:13:59.670Z,11.90
2019-01-10T13:17:08.550Z,13.40
2019-01-10T13:20:23.383Z,15.37
2019-01-10T13:23:12.297Z,14.90
2019-01-10T13:26:01.137Z,9.40
2019-01-10T13:28:50.219Z,15.50
2019-01-10T13:34:41.163Z,13.30
2019-01-10T13:37:30.075Z,13.57
2019-01-10T13:40:19.004Z,11.27
2019-01-10T13:46:35.596Z,18.10
2019-01-10T13:49:24.604Z,10.53
2019-01-10T13:52:13.630Z,14.10
2019-01-10T13:55:02.688Z,15.80
2019-01-10T13:57:51.812Z,14.23
2019-01-10T14:00:41.260Z,17.77
2019-01-10T14:03:30.243Z,17.77
2019-01-10T14:06:18.989Z,13.93
2019-01-10T14:09:07.703Z,16.47
2019-01-10T14:11:56.688Z,13.37
2019-01-10T14:14:26.502Z,12.93
2019-01-10T14:17:15.552Z,9.73
2019-01-10T14:20:25.251Z,8.23
2019-01-10T14:23:14.254Z,9.03
2019-01-10T14:26:22.868Z,12.37
2019-01-10T14:29:12.123Z,9.50
2019-01-10T14:32:01.228Z,18.80
2019-01-10T14:34:31.139Z,11.83
2019-01-10T14:37:20.379Z,9.63
2019-01-10T14:39:49.967Z,15.47
2019-01-10T14:42:58.386Z,10.30
2019-01-10T14:46:06.802Z,12.97
2019-01-10T14:48:55.767Z,10.00
2019-01-10T14:52:04.358Z,11.17
2019-01-10T14:54:53.290Z,8.27
2019-01-10T14:57:43.957Z,8.10
2019-01-10T15:00:26.996Z,9.90
2019-01-10T15:03:16.251Z,9.93
2019-01-10T15:06:06.982Z,12.50
2019-01-10T15:08:56.315Z,16.33
2019-01-10T15:12:05.055Z,18.00
2019-01-10T15:14:54.064Z,14.57
2019-01-10T15:17:44.214Z,9.60
2019-01-10T15:20:53.447Z,8.53
2019-01-10T15:23:43.997Z,12.10
2019-01-10T15:29:41.490Z,17.07
2019-01-10T15:32:30.507Z,16.25
2019-01-10T15:35:15.400Z,17.85
2019-01-10T15:38:04.312Z,14.70
2019-01-10T15:40:53.463Z,13.77
2019-01-10T15:46:52.164Z,14.93
2019-01-10T15:49:41.167Z,12.53
2019-01-10T15:52:30.294Z,17.60
2019-01-10T15:55:20.194Z,16.67
2019-01-10T15:58:09.132Z,19.33
2019-01-10T16:00:58.071Z,15.80
2019-01-10T16:03:47.027Z,18.73
2019-01-10T16:06:36.099Z,15.80
2019-01-10T16:09:25.100Z,9.50
2019-01-10T16:12:13.941Z,21.70
2019-01-10T16:15:23.116Z,16.93
2019-01-10T16:18:31.429Z,14.77
2019-01-10T16:21:20.296Z,16.60
2019-01-10T16:24:09.222Z,14.47
2019-01-10T16:27:17.524Z,10.47
2019-01-10T16:30:27.423Z,17.17
2019-01-10T16:33:37.226Z,15.60
2019-01-10T16:36:38.645Z,12.53
2019-01-10T16:39:08.750Z,14.70
2019-01-10T16:41:38.560Z,17.63
2019-01-10T16:44:27.676Z,20.80
2019-01-10T16:47:16.804Z,16.27
2019-01-10T16:50:26.499Z,27.40
2019-01-10T16:53:15.606Z,24.90
2019-01-10T16:56:04.630Z,39.73
2019-01-10T16:58:53.596Z,18.30
2019-01-10T17:02:01.934Z,44.77
2019-01-10T17:04:50.930Z,20.87
2019-01-10T17:07:39.762Z,11.03
2019-01-10T17:10:31.642Z,13.97
2019-01-10T17:13:20.577Z,10.07
2019-01-10T17:16:09.380Z,13.73
2019-01-10T17:18:58.260Z,15.40
2019-01-10T17:21:47.357Z,12.50
2019-01-10T17:24:36.296Z,16.13
2019-01-10T17:27:44.648Z,12.00
2019-01-10T17:30:35.152Z,18.03
2019-01-10T17:33:24.144Z,17.37
2019-01-10T17:36:07.399Z,13.27
2019-01-10T17:38:56.267Z,14.77
2019-01-10T17:41:45.301Z,11.20
2019-01-10T17:44:34.157Z,15.07
2019-01-10T17:47:44.151Z,16.60
2019-01-10T17:50:52.659Z,14.17
2019-01-10T17:53:41.579Z,18.57
2019-01-10T17:59:50.999Z,14.00
2019-01-10T18:02:59.384Z,15.03
2019-01-10T18:05:48.295Z,18.67
2019-01-10T18:08:37.239Z,14.77
2019-01-10T18:11:26.319Z,17.20
2019-01-10T18:14:15.220Z,14.70
2019-01-10T18:17:23.616Z,18.03
2019-01-10T18:20:33.363Z,17.40
2019-01-10T18:23:22.323Z,15.50
2019-01-10T18:26:11.251Z,24.50
2019-01-10T18:29:00.328Z,27.33
2019-01-10T18:34:51.552Z,26.83
2019-01-10T18:37:40.538Z,24.63
2019-01-10T18:40:29.841Z,13.90
2019-01-10T18:43:18.728Z,19.90
2019-01-10T18:46:07.560Z,17.13
2019-01-10T18:48:56.530Z,19.33
2019-01-10T18:51:45.443Z,19.30
2019-01-10T18:55:00.028Z,19.27
2019-01-10T18:58:16.575Z,16.70
2019-01-10T19:01:13.928Z,24.40
2019-01-10T19:04:02.787Z,22.93
2019-01-10T19:07:11.191Z,27.07
2019-01-10T19:10:00.224Z,19.33
2019-01-10T19:12:49.255Z,16.50
2019-01-10T19:15:57.622Z,18.20
2019-01-10T22:16:56.571Z,20.55
2019-01-10T22:19:45.538Z,26.03
2019-01-10T22:22:34.559Z,38.10
2019-01-10T22:25:43.073Z,26.63
2019-01-10T22:28:32.467Z,26.80
2019-01-10T22:31:21.413Z,17.80
2019-01-10T22:34:03.649Z,27.27
2019-01-10T22:36:46.354Z,25.30
2019-01-10T22:39:35.303Z,23.57
2019-01-10T22:42:24.225Z,25.40
2019-01-10T22:45:33.873Z,30.00
2019-01-10T22:48:24.555Z,24.57
2019-01-10T22:51:13.586Z,45.47
2019-01-10T22:54:02.567Z,23.67
2019-01-10T22:56:51.555Z,33.77
2019-01-10T22:59:42.138Z,27.70
2019-01-10T23:02:25.103Z,22.57
2019-01-10T23:05:14.031Z,27.47
2019-01-10T23:08:03.015Z,36.07
2019-01-10T23:11:12.674Z,36.13
2019-01-10T23:14:01.791Z,32.57
2019-01-10T23:17:10.167Z,31.43
2019-01-10T23:20:18.624Z,29.03
2019-01-10T23:23:27.002Z,30.87
2019-01-10T23:26:15.867Z,27.10
2019-01-10T23:29:05.004Z,28.60
2019-01-10T23:31:55.576Z,30.00
2019-01-10T23:34:38.501Z,23.67
2019-01-10T23:37:27.658Z,27.50
2019-01-10T23:40:16.609Z,32.27
2019-01-10T23:43:05.743Z,29.30
2019-01-10T23:49:00.558Z,42.43
2019-01-10T23:51:47.222Z,32.23
2019-01-10T23:54:17.033Z,40.87
2019-01-10T23:57:05.954Z,34.80
